Αναφορές Αεροδρομίων

 

KSJC - San Jose, California, USA
Distance from station: ΒΑ 14km
Ενημερώθηκε: 23/06/2024 19:53
Αίθριος
Αίθριος
 Ανεμος από ΒΒΔ
Ανεμος: ΒΒΔ 7 km/h
Θερμοκρασία: 24°C
Σημείο Δρόσου: 13°C
Υγρασία: 50%
Βαρόμετρο: 1011.9 hPa
Clouds: Αίθριος
Visibility: 16 km
2024/06/23 16:53 KSJC 231653Z 34004KT 10SM CLR 24/13 A2988 RMK AO2 SLP118 T02390128
KNUQ - Moffett Nas/Mtn, California, USA
Distance from station: Β 14km
Ενημερώθηκε: 23/06/2024 20:35
Αίθριος
Αίθριος
 Ανεμος από Β
Ανεμος: Β 13 km/h
Θερμοκρασία: 21°C
Σημείο Δρόσου: 15°C
Υγρασία: 69%
Βαρόμετρο: 1012.5 hPa
Clouds: Αίθριος
Visibility: 14 km
2024/06/23 17:35 KNUQ 231735Z AUTO 35007KT 9SM CLR 21/15 A2990 RMK AO2
 
KPAO - Palo Alto, California, USA
Distance from station: ΒΒΔ 23km
Ενημερώθηκε: 23/06/2024 20:47
Αίθριος
Αίθριος
 Ανεμος από Β
Ανεμος: Β 17 km/h
Θερμοκρασία: 20°C
Σημείο Δρόσου: 14°C
Υγρασία: 69%
Βαρόμετρο: 1012.5 hPa
Clouds: Αίθριος
Visibility: 13 km
2024/06/23 17:47 KPAO 231747Z 35009KT 8SM SKC 20/14 A2990
KRHV - San Jose/Reid, California, USA
Distance from station: ΑΒΑ 19km
Ενημερώθηκε: 23/06/2024 19:55
Αίθριος
Αίθριος
 Ανεμος από Α
Ανεμος: Α 6 km/h
Θερμοκρασία: 24°C
Σημείο Δρόσου: 12°C
Υγρασία: 47%
Βαρόμετρο: 1012.2 hPa
Clouds: Αίθριος
Visibility: 16 km
2024/06/23 16:55 KRHV 231655Z 10003KT 10SM SKC 24/12 A2989
 
KOAK - Oakland, California, USA
Distance from station: ΒΒΔ 50km
Ενημερώθηκε: 23/06/2024 19:53
Few Clouds
Few Clouds
 Ανεμος από ΔΒΔ
Ανεμος: ΔΒΔ 17 km/h
Θερμοκρασία: 18°C
Σημείο Δρόσου: 13°C
Υγρασία: 73%
Βαρόμετρο: 1012.5 hPa
Clouds: Few Clouds
Visibility: 16 km
Cloud details: Few Clouds 305 m
2024/06/23 16:53 KOAK 231653Z 30009KT 10SM FEW010 18/13 A2990 RMK AO2 SLP125 T01830128
KSQL - San Carlos Airpo, California, USA
Distance from station: ΒΔ 34km
Ενημερώθηκε: 23/06/2024 20:47
Αίθριος
Αίθριος
 Ανεμος από Β
Ανεμος: Β 15 km/h
Θερμοκρασία: 20°C
Σημείο Δρόσου: 14°C
Υγρασία: 69%
Βαρόμετρο: 1012.9 hPa
Clouds: Αίθριος
Visibility: 16 km
2024/06/23 17:47 KSQL 231747Z 01008KT 10SM CLR 20/14 A2991
 
KSFO - San Francisco, California, USA
Distance from station: ΒΔ 49km
Ενημερώθηκε: 23/06/2024 19:56
Few Clouds
Few Clouds
 Ανεμος από ΒΔ
Ανεμος: ΒΔ 15 km/h
Θερμοκρασία: 17°C
Σημείο Δρόσου: 12°C
Υγρασία: 73%
Βαρόμετρο: 1012.5 hPa
Clouds: Few Clouds
Visibility: 16 km
Cloud details: Few Clouds 183 m
2024/06/23 16:56 KSFO 231656Z 31008KT 10SM FEW006 17/12 A2990 RMK AO2 SLP123 T01720117
KE16 - San Martin, California, USA
Distance from station: ΑΝΑ 43km
Ενημερώθηκε: 23/06/2024 20:35
Αίθριος
Αίθριος
 Ανεμος από ΝΝΑ
Ανεμος: ΝΝΑ 7 km/h
Θερμοκρασία: 27°C
Σημείο Δρόσου: 10°C
Υγρασία: 34%
Βαρόμετρο: 1012.9 hPa
Clouds: Αίθριος
Visibility: 16 km
2024/06/23 17:35 KE16 231735Z AUTO 16004KT 10SM CLR 27/10 A2991 RMK AO2
 
KWVI - Watsonville, California, USA
Distance from station: ΝΝΑ 44km
Ενημερώθηκε: 23/06/2024 19:53
Αίθριος
Αίθριος
 Ανεμος από Ν
Ανεμος: Ν 9 km/h
Θερμοκρασία: 19°C
Σημείο Δρόσου: 13°C
Υγρασία: 68%
Βαρόμετρο: 1013.2 hPa
Clouds: Αίθριος
Visibility: 16 km
2024/06/23 16:53 KWVI 231653Z AUTO 18005KT 10SM CLR 19/13 A2992 RMK AO2 SLP132 T01940128
KHAF - Half Moon Bay, California, USA
Distance from station: ΔΒΔ 50km
Ενημερώθηκε: 23/06/2024 20:35
Mist, Συννεφιά
Mist, Συννεφιά
 Ανεμος από Ν
Ανεμος: Ν 15 km/h
Θερμοκρασία: 12°C
Σημείο Δρόσου: 12°C
Υγρασία: 100%
Βαρόμετρο: 1014.2 hPa
Περίληψη: Mist
Clouds: Συννεφιά
Visibility: 6 km
Cloud details: Συννεφιά 122 m
2024/06/23 17:35 KHAF 231735Z AUTO 17008KT 4SM BR OVC004 12/12 A2995 RMK AO2
 
KHWD - Hayward, California, USA
Distance from station: Β 44km
Ενημερώθηκε: 23/06/2024 19:54
Αίθριος
Αίθριος
 Ανεμος από Δ
Ανεμος: Δ 15 km/h
Θερμοκρασία: 21°C
Σημείο Δρόσου: 13°C
Υγρασία: 60%
Βαρόμετρο: 1012.2 hPa
Clouds: Αίθριος
Visibility: 16 km
2024/06/23 16:54 KHWD 231654Z 28008KT 10SM CLR 21/13 A2989 RMK AO2 SLP129 T02060128
KLVK - Livermore, California, USA
Distance from station: ΒΒΑ 51km
Ενημερώθηκε: 23/06/2024 19:53
Αίθριος
Αίθριος
 Ανεμος από ΝΔ
Ανεμος: ΝΔ 6 km/h
Θερμοκρασία: 26°C
Σημείο Δρόσου: 10°C
Υγρασία: 37%
Βαρόμετρο: 1011.2 hPa
Clouds: Αίθριος
Visibility: 13 km
2024/06/23 16:53 KLVK 231653Z AUTO 22003KT 8SM CLR 26/10 A2986 RMK AO2 SLP107 T02610100